Quick Links (Output Below):   Max & Min Temps   /   Climate Reports   /   Zone Forecasts
River Forecasts   /   Forestry Forecasts   /   Aviation Forecasts   /   Radars   /   Features

Terminal Aerodrome Forecast (Fort Smith)

Pick a Site:
Arkadelphia | El Dorado | Fayetteville | Fort Smith | Harrison | Highfill | Hot Springs | Jonesboro
Little Rock | Monticello | Mountain Home | Pine Bluff | Texarkana
 Forecast 

KFSM 270533Z 2706/2806 34008KT P6SM SCT120
     FM271200 28005KT P6SM SCT120
     FM272100 08003KT P6SM SCT150=


 Latest METARs (Observations) 
How to Decode METARs
05Z KFSM 270453Z AUTO 34008KT 10SM CLR 05/M03 A3036 RMK AO2 SLP282
         T00501033
         
04Z KFSM 270353Z 31009KT 10SM CLR 06/M04 A3033 RMK AO2 SLP273
         T00611039
         
03Z KFSM 270253Z 33017G26KT 10SM CLR 07/M04 A3029 RMK AO2 PK WND
         32028/0214 SLP260 T00721039 51034
         
02Z KFSM 270153Z 32015G23KT 10SM CLR 08/M04 A3026 RMK AO2 SLP249
         T00831044
         
01Z KFSM 270053Z 32011KT 10SM CLR 09/M04 A3024 RMK AO2 SLP240
         T00941039
         
00Z KFSM 262353Z 30011KT 7SM CLR 11/M02 A3019 RMK AO2 SLP225 T01111022
         10144 20111 53025
         
***** Today's Observations (Above) *****


23Z KFSM 262253Z 30021G30KT 10SM CLR 12/M04 A3016 RMK AO2 PK WND
         29030/2249 SLP215 T01221039
         
22Z KFSM 262153Z 29017G21KT 7SM CLR 13/M03 A3013 RMK AO2 SLP205
         T01331028
         
21Z KFSM 262053Z 28016KT 10SM CLR 14/M02 A3012 RMK AO2 PK WND
         29026/1956 SLP200 T01391022 53014
         
20Z KFSM 261953Z 28014G21KT 10SM CLR 14/M02 A3009 RMK AO2 SLP191
         T01441022
         
***** Yesterday's Observations (Above) *****


Back to Main Page
http://www.srh.noaa.gov/lzk/qfcst.php

USA.gov is the U.S. government's official web portal to all federal, state and local government web resources and services.